Archival Weather

Greater Kankakee

Kankakee, Illinois (KIKK)

Report from: Tuesday, June 6, 2023 9:35 PM CDT
Current time: Saturday, July 13, 2024 8:14 PM CDT

Current weather – Weather history – Daily summaries
Weather forecast

Temperature17.8°C (64.0°F)
Dew point10.4°C (50.7°F)
Winds 8 kts (4.1 m/s, 9.2 mph) Northeast (40°)
Visibility10 mi. (16.1 km)
Clouds Scattered clouds 7,000 ft. (2,134 m)
Ceiling: Broken clouds 12,000 ft. (3,658 m)
Altimeter29.91 in.Hg (1013 mB)
Relative humidity62 %
Density altitude521 ft. (159 m)
Remarks Fully automated report
Automated weather observing station with precipitation discriminator
Present weather sensor not operating
Flight conditions Visual Meteorological Conditions
Raw dataKIKK 070235Z AUTO 04008KT 10SM SCT070 BKN120 18/10 A2991 RMK AO2 T01780104 PWINO
An error has occurred. This application may no longer respond until reloaded. Reload 🗙